sensor_id;sensor_type;location;lat;lon;timestamp;pressure;altitude;pressure_sealevel;temperature;humidity
70015;BME280;57358;51.094;6.760;2023-02-25T00:00:31;100253.94;;;3.10;100.00
70015;BME280;57358;51.094;6.760;2023-02-25T00:02:58;100173.94;;;2.66;100.00
70015;BME280;57358;51.094;6.760;2023-02-25T00:05:25;100242.72;;;3.09;100.00
70015;BME280;57358;51.094;6.760;2023-02-25T00:07:52;100258.47;;;3.03;100.00
70015;BME280;57358;51.094;6.760;2023-02-25T00:10:20;100251.53;;;3.04;100.00
70015;BME280;57358;51.094;6.760;2023-02-25T00:12:46;100221.84;;;2.83;100.00
70015;BME280;57358;51.094;6.760;2023-02-25T00:15:13;100149.72;;;2.37;100.00
70015;BME280;57358;51.094;6.760;2023-02-25T00:17:39;100185.00;;;2.42;100.00
70015;BME280;57358;51.094;6.760;2023-02-25T00:20:07;100176.38;;;2.41;100.00
70015;BME280;57358;51.094;6.760;2023-02-25T00:22:35;100264.69;;;2.96;100.00
70015;BME280;57358;51.094;6.760;2023-02-25T00:25:01;100258.66;;;2.95;100.00
70015;BME280;57358;51.094;6.760;2023-02-25T00:27:28;100155.13;;;2.28;100.00
70015;BME280;57358;51.094;6.760;2023-02-25T00:29:54;100252.84;;;2.87;100.00
70015;BME280;57358;51.094;6.760;2023-02-25T00:32:21;100261.47;;;2.88;100.00
70015;BME280;57358;51.094;6.760;2023-02-25T00:34:48;100253.72;;;2.86;100.00
70015;BME280;57358;51.094;6.760;2023-02-25T00:37:14;100170.47;;;2.36;100.00
70015;BME280;57358;51.094;6.760;2023-02-25T00:39:41;100122.00;;;2.08;100.00
70015;BME280;57358;51.094;6.760;2023-02-25T00:42:12;100167.09;;;2.32;100.00
70015;BME280;57358;51.094;6.760;2023-02-25T00:44:42;100241.75;;;2.82;100.00
70015;BME280;57358;51.094;6.760;2023-02-25T00:47:09;100125.91;;;1.92;100.00
70015;BME280;57358;51.094;6.760;2023-02-25T00:49:35;100213.09;;;2.57;100.00
70015;BME280;57358;51.094;6.760;2023-02-25T00:52:02;100150.06;;;2.25;100.00
70015;BME280;57358;51.094;6.760;2023-02-25T00:54:28;100035.50;;;1.53;100.00
70015;BME280;57358;51.094;6.760;2023-02-25T00:56:55;100221.47;;;2.67;100.00
70015;BME280;57358;51.094;6.760;2023-02-25T00:59:21;100220.47;;;2.71;100.00
70015;BME280;57358;51.094;6.760;2023-02-25T01:01:48;100168.94;;;2.29;100.00
70015;BME280;57358;51.094;6.760;2023-02-25T01:04:14;100236.25;;;2.62;100.00
70015;BME280;57358;51.094;6.760;2023-02-25T01:06:41;100152.34;;;2.03;100.00
70015;BME280;57358;51.094;6.760;2023-02-25T01:09:08;100240.00;;;2.51;100.00
70015;BME280;57358;51.094;6.760;2023-02-25T01:11:41;100241.63;;;2.54;100.00
70015;BME280;57358;51.094;6.760;2023-02-25T01:14:17;100226.91;;;2.56;100.00
70015;BME280;57358;51.094;6.760;2023-02-25T01:16:45;100208.94;;;2.50;100.00
70015;BME280;57358;51.094;6.760;2023-02-25T01:19:14;100124.59;;;2.08;100.00
70015;BME280;57358;51.094;6.760;2023-02-25T01:21:44;100232.66;;;2.67;100.00
70015;BME280;57358;51.094;6.760;2023-02-25T01:24:16;100231.69;;;2.71;100.00
70015;BME280;57358;51.094;6.760;2023-02-25T01:26:44;100231.84;;;2.65;100.00
70015;BME280;57358;51.094;6.760;2023-02-25T01:29:13;100236.88;;;2.71;100.00
70015;BME280;57358;51.094;6.760;2023-02-25T01:31:40;100168.19;;;2.25;100.00
70015;BME280;57358;51.094;6.760;2023-02-25T01:34:09;100122.47;;;1.91;100.00
70015;BME280;57358;51.094;6.760;2023-02-25T01:36:35;99980.63;;;1.09;100.00
70015;BME280;57358;51.094;6.760;2023-02-25T01:39:03;100232.69;;;2.66;100.00
70015;BME280;57358;51.094;6.760;2023-02-25T01:41:31;100135.00;;;2.07;100.00
70015;BME280;57358;51.094;6.760;2023-02-25T01:44:22;100244.63;;;2.71;100.00
70015;BME280;57358;51.094;6.760;2023-02-25T01:46:51;100225.16;;;2.56;100.00
70015;BME280;57358;51.094;6.760;2023-02-25T01:49:31;100267.06;;;2.72;100.00
70015;BME280;57358;51.094;6.760;2023-02-25T01:52:06;100237.69;;;2.73;100.00
70015;BME280;57358;51.094;6.760;2023-02-25T01:54:35;100227.81;;;2.55;100.00
70015;BME280;57358;51.094;6.760;2023-02-25T01:57:05;100230.88;;;2.36;100.00
70015;BME280;57358;51.094;6.760;2023-02-25T01:59:33;100207.13;;;2.53;100.00
70015;BME280;57358;51.094;6.760;2023-02-25T02:02:00;100141.97;;;2.05;100.00
70015;BME280;57358;51.094;6.760;2023-02-25T02:04:28;100249.63;;;2.79;100.00
70015;BME280;57358;51.094;6.760;2023-02-25T02:06:55;100167.63;;;2.12;100.00
70015;BME280;57358;51.094;6.760;2023-02-25T02:09:27;100245.69;;;2.64;100.00
70015;BME280;57358;51.094;6.760;2023-02-25T02:11:59;100153.06;;;2.08;100.00
70015;BME280;57358;51.094;6.760;2023-02-25T02:14:28;100171.81;;;2.18;100.00
70015;BME280;57358;51.094;6.760;2023-02-25T02:17:02;100261.03;;;2.72;100.00
70015;BME280;57358;51.094;6.760;2023-02-25T02:24:50;100258.69;;;2.63;100.00
70015;BME280;57358;51.094;6.760;2023-02-25T02:30:13;100184.91;;;2.12;100.00
70015;BME280;57358;51.094;6.760;2023-02-25T02:32:56;100220.56;;;2.35;100.00
70015;BME280;57358;51.094;6.760;2023-02-25T02:35:59;100031.97;;;1.23;100.00
70015;BME280;57358;51.094;6.760;2023-02-25T02:38:35;100133.22;;;1.74;100.00
70015;BME280;57358;51.094;6.760;2023-02-25T02:41:16;100230.06;;;2.34;100.00
70015;BME280;57358;51.094;6.760;2023-02-25T02:50:02;100255.75;;;2.42;100.00
70015;BME280;57358;51.094;6.760;2023-02-25T02:52:15;100252.31;;;2.42;100.00
70015;BME280;57358;51.094;6.760;2023-02-25T02:54:48;100211.75;;;2.08;100.00
70015;BME280;57358;51.094;6.760;2023-02-25T02:57:18;100255.53;;;2.51;100.00
70015;BME280;57358;51.094;6.760;2023-02-25T03:00:00;100138.56;;;1.68;100.00
70015;BME280;57358;51.094;6.760;2023-02-25T03:02:35;100134.41;;;1.63;100.00
70015;BME280;57358;51.094;6.760;2023-02-25T03:05:07;100259.88;;;2.51;100.00
70015;BME280;57358;51.094;6.760;2023-02-25T03:07:40;100266.84;;;2.49;100.00
70015;BME280;57358;51.094;6.760;2023-02-25T03:10:12;100208.28;;;2.09;100.00
70015;BME280;57358;51.094;6.760;2023-02-25T03:12:43;100243.97;;;2.30;100.00
70015;BME280;57358;51.094;6.760;2023-02-25T03:15:10;100237.97;;;2.28;100.00
70015;BME280;57358;51.094;6.760;2023-02-25T03:17:50;99947.34;;;0.59;100.00
70015;BME280;57358;51.094;6.760;2023-02-25T03:20:27;100224.41;;;2.18;100.00
70015;BME280;57358;51.094;6.760;2023-02-25T03:22:55;100279.50;;;2.59;100.00
70015;BME280;57358;51.094;6.760;2023-02-25T03:25:28;100282.25;;;2.53;100.00
70015;BME280;57358;51.094;6.760;2023-02-25T03:28:20;100269.25;;;2.55;100.00
70015;BME280;57358;51.094;6.760;2023-02-25T03:30:47;100218.31;;;2.23;100.00
70015;BME280;57358;51.094;6.760;2023-02-25T03:36:11;100084.84;;;1.44;100.00
70015;BME280;57358;51.094;6.760;2023-02-25T03:38:43;100218.25;;;2.24;100.00
70015;BME280;57358;51.094;6.760;2023-02-25T03:41:14;100198.75;;;2.11;100.00
70015;BME280;57358;51.094;6.760;2023-02-25T03:43:45;100237.91;;;2.31;100.00
70015;BME280;57358;51.094;6.760;2023-02-25T03:46:15;100275.06;;;2.65;100.00
70015;BME280;57358;51.094;6.760;2023-02-25T03:48:43;100167.25;;;1.93;100.00
70015;BME280;57358;51.094;6.760;2023-02-25T03:51:12;100195.91;;;2.20;100.00
70015;BME280;57358;51.094;6.760;2023-02-25T03:53:40;100194.28;;;2.16;100.00
70015;BME280;57358;51.094;6.760;2023-02-25T03:56:09;100279.28;;;2.67;100.00
70015;BME280;57358;51.094;6.760;2023-02-25T03:58:38;100025.16;;;1.18;100.00
70015;BME280;57358;51.094;6.760;2023-02-25T04:01:08;100281.72;;;2.73;100.00
70015;BME280;57358;51.094;6.760;2023-02-25T04:03:37;100041.22;;;1.31;100.00
70015;BME280;57358;51.094;6.760;2023-02-25T04:06:03;100288.56;;;2.76;100.00
70015;BME280;57358;51.094;6.760;2023-02-25T04:08:30;100225.69;;;2.36;100.00
70015;BME280;57358;51.094;6.760;2023-02-25T04:10:56;100248.56;;;2.53;100.00
70015;BME280;57358;51.094;6.760;2023-02-25T04:13:22;100202.16;;;2.13;100.00
70015;BME280;57358;51.094;6.760;2023-02-25T04:15:49;100306.78;;;2.73;100.00
70015;BME280;57358;51.094;6.760;2023-02-25T04:18:16;100190.97;;;2.11;100.00
70015;BME280;57358;51.094;6.760;2023-02-25T04:20:42;100164.81;;;1.89;100.00
70015;BME280;57358;51.094;6.760;2023-02-25T04:23:12;100271.84;;;2.55;100.00
70015;BME280;57358;51.094;6.760;2023-02-25T04:25:39;100257.50;;;2.42;100.00
70015;BME280;57358;51.094;6.760;2023-02-25T04:28:06;100305.19;;;2.67;100.00
70015;BME280;57358;51.094;6.760;2023-02-25T04:30:32;100249.16;;;2.30;100.00
70015;BME280;57358;51.094;6.760;2023-02-25T04:32:59;100218.69;;;2.07;100.00
70015;BME280;57358;51.094;6.760;2023-02-25T04:35:26;100304.28;;;2.68;100.00
70015;BME280;57358;51.094;6.760;2023-02-25T04:37:52;100256.16;;;2.27;100.00
70015;BME280;57358;51.094;6.760;2023-02-25T04:40:21;100312.97;;;2.67;100.00
70015;BME280;57358;51.094;6.760;2023-02-25T04:42:48;100237.31;;;2.20;100.00
70015;BME280;57358;51.094;6.760;2023-02-25T04:45:14;100311.16;;;2.71;100.00
70015;BME280;57358;51.094;6.760;2023-02-25T04:47:41;100302.59;;;2.69;100.00
70015;BME280;57358;51.094;6.760;2023-02-25T04:50:09;100230.47;;;2.19;100.00
70015;BME280;57358;51.094;6.760;2023-02-25T04:52:36;100308.56;;;2.71;100.00
70015;BME280;57358;51.094;6.760;2023-02-25T04:55:04;100305.03;;;2.73;100.00
70015;BME280;57358;51.094;6.760;2023-02-25T04:57:30;100311.19;;;2.69;100.00
70015;BME280;57358;51.094;6.760;2023-02-25T04:59:57;100243.94;;;2.32;100.00
70015;BME280;57358;51.094;6.760;2023-02-25T05:02:23;100210.78;;;2.12;100.00
70015;BME280;57358;51.094;6.760;2023-02-25T05:04:49;100138.50;;;1.34;100.00
70015;BME280;57358;51.094;6.760;2023-02-25T05:07:16;100282.22;;;2.55;100.00
70015;BME280;57358;51.094;6.760;2023-02-25T05:09:43;100177.59;;;1.95;100.00
70015;BME280;57358;51.094;6.760;2023-02-25T05:12:09;100245.69;;;2.31;100.00
70015;BME280;57358;51.094;6.760;2023-02-25T05:14:36;100267.22;;;2.33;100.00
70015;BME280;57358;51.094;6.760;2023-02-25T05:17:02;100301.88;;;2.62;100.00
70015;BME280;57358;51.094;6.760;2023-02-25T05:19:29;100155.63;;;1.75;100.00
70015;BME280;57358;51.094;6.760;2023-02-25T05:21:56;100065.00;;;1.08;100.00
70015;BME280;57358;51.094;6.760;2023-02-25T05:24:22;100320.91;;;2.61;100.00
70015;BME280;57358;51.094;6.760;2023-02-25T05:26:49;100279.50;;;2.25;100.00
70015;BME280;57358;51.094;6.760;2023-02-25T05:29:16;100046.00;;;1.12;100.00
70015;BME280;57358;51.094;6.760;2023-02-25T05:31:43;100212.72;;;2.04;100.00
70015;BME280;57358;51.094;6.760;2023-02-25T05:34:10;100036.03;;;0.95;100.00
70015;BME280;57358;51.094;6.760;2023-02-25T05:36:36;100231.59;;;2.09;100.00
70015;BME280;57358;51.094;6.760;2023-02-25T05:39:02;100309.72;;;2.59;100.00
70015;BME280;57358;51.094;6.760;2023-02-25T05:41:29;100252.53;;;2.32;100.00
70015;BME280;57358;51.094;6.760;2023-02-25T05:43:56;100296.50;;;2.35;100.00
70015;BME280;57358;51.094;6.760;2023-02-25T05:46:23;100311.41;;;2.60;100.00
70015;BME280;57358;51.094;6.760;2023-02-25T05:48:51;100287.75;;;2.41;100.00
70015;BME280;57358;51.094;6.760;2023-02-25T05:51:19;100314.66;;;2.68;100.00
70015;BME280;57358;51.094;6.760;2023-02-25T05:53:48;100232.31;;;2.14;100.00
70015;BME280;57358;51.094;6.760;2023-02-25T05:56:18;100227.16;;;2.12;100.00
70015;BME280;57358;51.094;6.760;2023-02-25T05:58:46;100246.69;;;2.26;100.00
70015;BME280;57358;51.094;6.760;2023-02-25T06:01:17;100306.22;;;2.62;100.00
70015;BME280;57358;51.094;6.760;2023-02-25T06:03:45;100315.75;;;2.59;100.00
70015;BME280;57358;51.094;6.760;2023-02-25T06:06:13;100314.94;;;2.57;100.00
70015;BME280;57358;51.094;6.760;2023-02-25T06:08:41;100274.84;;;2.38;100.00
70015;BME280;57358;51.094;6.760;2023-02-25T06:11:11;100300.75;;;2.38;100.00
70015;BME280;57358;51.094;6.760;2023-02-25T06:13:41;100331.47;;;2.53;100.00
70015;BME280;57358;51.094;6.760;2023-02-25T06:16:07;100211.16;;;1.96;100.00
70015;BME280;57358;51.094;6.760;2023-02-25T06:18:36;100179.88;;;1.71;100.00
70015;BME280;57358;51.094;6.760;2023-02-25T06:21:07;100319.13;;;2.63;100.00
70015;BME280;57358;51.094;6.760;2023-02-25T06:23:34;100323.59;;;2.56;100.00
70015;BME280;57358;51.094;6.760;2023-02-25T06:26:02;100137.69;;;1.32;100.00
70015;BME280;57358;51.094;6.760;2023-02-25T06:28:31;100221.88;;;1.83;100.00
70015;BME280;57358;51.094;6.760;2023-02-25T06:30:57;100245.72;;;1.94;100.00
70015;BME280;57358;51.094;6.760;2023-02-25T06:33:24;100229.34;;;1.95;100.00
70015;BME280;57358;51.094;6.760;2023-02-25T06:35:52;99939.69;;;0.17;100.00
70015;BME280;57358;51.094;6.760;2023-02-25T06:38:19;100303.25;;;2.43;100.00
70015;BME280;57358;51.094;6.760;2023-02-25T06:40:46;100340.00;;;2.57;100.00
70015;BME280;57358;51.094;6.760;2023-02-25T06:43:13;100310.28;;;2.36;100.00
70015;BME280;57358;51.094;6.760;2023-02-25T06:45:39;100298.28;;;2.33;100.00
70015;BME280;57358;51.094;6.760;2023-02-25T06:48:06;100296.69;;;2.28;100.00
70015;BME280;57358;51.094;6.760;2023-02-25T06:50:33;100351.22;;;2.57;100.00
70015;BME280;57358;51.094;6.760;2023-02-25T06:52:59;100335.94;;;2.47;100.00
70015;BME280;57358;51.094;6.760;2023-02-25T06:55:26;100326.75;;;2.35;100.00
70015;BME280;57358;51.094;6.760;2023-02-25T06:57:52;100298.69;;;2.16;100.00
70015;BME280;57358;51.094;6.760;2023-02-25T07:00:20;100294.59;;;2.06;100.00
70015;BME280;57358;51.094;6.760;2023-02-25T07:02:46;100126.84;;;1.17;100.00
70015;BME280;57358;51.094;6.760;2023-02-25T07:05:13;100344.81;;;2.36;100.00
70015;BME280;57358;51.094;6.760;2023-02-25T07:07:39;100295.97;;;2.23;100.00
70015;BME280;57358;51.094;6.760;2023-02-25T07:10:06;100326.50;;;2.44;100.00
70015;BME280;57358;51.094;6.760;2023-02-25T07:12:32;100307.84;;;2.30;100.00
70015;BME280;57358;51.094;6.760;2023-02-25T07:14:59;100268.72;;;2.06;100.00
70015;BME280;57358;51.094;6.760;2023-02-25T07:17:25;100266.00;;;2.12;100.00
70015;BME280;57358;51.094;6.760;2023-02-25T07:19:52;100356.72;;;2.44;100.00
70015;BME280;57358;51.094;6.760;2023-02-25T07:22:18;100312.81;;;2.39;100.00
70015;BME280;57358;51.094;6.760;2023-02-25T07:24:45;100347.78;;;2.57;100.00
70015;BME280;57358;51.094;6.760;2023-02-25T07:27:12;100277.13;;;2.16;100.00
70015;BME280;57358;51.094;6.760;2023-02-25T07:29:39;100281.47;;;2.15;100.00
70015;BME280;57358;51.094;6.760;2023-02-25T07:32:06;100420.41;;;2.88;100.00
70015;BME280;57358;51.094;6.760;2023-02-25T07:34:36;100187.69;;;1.68;100.00
70015;BME280;57358;51.094;6.760;2023-02-25T07:37:02;100325.34;;;2.56;100.00
70015;BME280;57358;51.094;6.760;2023-02-25T07:39:28;100333.50;;;2.75;100.00
70015;BME280;57358;51.094;6.760;2023-02-25T07:41:55;100323.25;;;2.70;100.00
70015;BME280;57358;51.094;6.760;2023-02-25T07:44:21;100354.75;;;2.88;100.00
70015;BME280;57358;51.094;6.760;2023-02-25T07:46:48;100278.41;;;2.34;100.00
70015;BME280;57358;51.094;6.760;2023-02-25T07:49:15;100380.00;;;3.14;100.00
70015;BME280;57358;51.094;6.760;2023-02-25T07:51:43;100263.22;;;2.20;100.00
70015;BME280;57358;51.094;6.760;2023-02-25T07:54:09;100375.22;;;2.98;100.00
70015;BME280;57358;51.094;6.760;2023-02-25T07:56:36;100362.47;;;2.91;100.00
70015;BME280;57358;51.094;6.760;2023-02-25T07:59:02;100338.44;;;2.84;100.00
70015;BME280;57358;51.094;6.760;2023-02-25T08:01:31;100373.28;;;3.07;100.00
70015;BME280;57358;51.094;6.760;2023-02-25T08:04:01;100408.91;;;3.33;100.00
70015;BME280;57358;51.094;6.760;2023-02-25T08:06:35;100376.72;;;3.07;100.00
70015;BME280;57358;51.094;6.760;2023-02-25T08:09:04;100390.03;;;3.26;100.00
70015;BME280;57358;51.094;6.760;2023-02-25T08:11:31;100398.47;;;3.34;100.00
70015;BME280;57358;51.094;6.760;2023-02-25T08:13:59;100413.63;;;3.50;100.00
70015;BME280;57358;51.094;6.760;2023-02-25T08:16:27;100412.59;;;3.55;100.00
70015;BME280;57358;51.094;6.760;2023-02-25T08:18:53;100422.38;;;3.46;100.00
70015;BME280;57358;51.094;6.760;2023-02-25T08:21:21;100388.06;;;3.36;100.00
70015;BME280;57358;51.094;6.760;2023-02-25T08:23:50;100296.88;;;2.89;100.00
70015;BME280;57358;51.094;6.760;2023-02-25T08:26:18;100404.72;;;3.58;100.00
70015;BME280;57358;51.094;6.760;2023-02-25T08:28:48;100305.13;;;3.03;100.00
70015;BME280;57358;51.094;6.760;2023-02-25T08:31:15;100324.50;;;3.21;100.00
70015;BME280;57358;51.094;6.760;2023-02-25T08:33:44;100409.16;;;3.85;100.00
70015;BME280;57358;51.094;6.760;2023-02-25T08:36:17;100380.09;;;3.73;100.00
70015;BME280;57358;51.094;6.760;2023-02-25T08:38:43;100391.00;;;3.85;100.00
70015;BME280;57358;51.094;6.760;2023-02-25T08:41:11;100429.09;;;3.84;100.00
70015;BME280;57358;51.094;6.760;2023-02-25T08:43:38;100347.47;;;3.35;100.00
70015;BME280;57358;51.094;6.760;2023-02-25T08:46:06;100333.31;;;3.14;100.00
70015;BME280;57358;51.094;6.760;2023-02-25T08:48:34;100367.53;;;3.27;100.00
70015;BME280;57358;51.094;6.760;2023-02-25T08:51:05;100423.41;;;3.71;100.00
70015;BME280;57358;51.094;6.760;2023-02-25T08:53:35;100372.72;;;3.27;100.00
70015;BME280;57358;51.094;6.760;2023-02-25T08:56:05;100446.97;;;3.64;100.00
70015;BME280;57358;51.094;6.760;2023-02-25T08:58:33;100444.13;;;3.73;100.00
70015;BME280;57358;51.094;6.760;2023-02-25T09:00:59;100411.88;;;3.50;100.00
70015;BME280;57358;51.094;6.760;2023-02-25T09:03:26;100446.94;;;3.65;100.00
70015;BME280;57358;51.094;6.760;2023-02-25T09:05:54;100362.25;;;2.98;100.00
70015;BME280;57358;51.094;6.760;2023-02-25T09:08:21;100437.09;;;3.45;100.00
70015;BME280;57358;51.094;6.760;2023-02-25T09:10:48;100331.91;;;2.71;100.00
70015;BME280;57358;51.094;6.760;2023-02-25T09:13:16;100370.19;;;2.92;100.00
70015;BME280;57358;51.094;6.760;2023-02-25T09:15:42;100332.97;;;2.62;100.00
70015;BME280;57358;51.094;6.760;2023-02-25T09:18:09;100366.13;;;2.82;100.00
70015;BME280;57358;51.094;6.760;2023-02-25T09:20:36;100353.09;;;2.85;100.00
70015;BME280;57358;51.094;6.760;2023-02-25T09:23:03;100394.78;;;3.10;100.00
70015;BME280;57358;51.094;6.760;2023-02-25T09:25:29;100270.47;;;2.42;100.00
70015;BME280;57358;51.094;6.760;2023-02-25T09:27:56;100454.16;;;3.54;100.00
70015;BME280;57358;51.094;6.760;2023-02-25T09:30:22;100413.66;;;3.15;100.00
70015;BME280;57358;51.094;6.760;2023-02-25T09:32:49;100502.59;;;3.85;100.00
70015;BME280;57358;51.094;6.760;2023-02-25T09:35:15;100456.03;;;3.80;100.00
70015;BME280;57358;51.094;6.760;2023-02-25T09:37:42;100407.47;;;3.52;100.00
70015;BME280;57358;51.094;6.760;2023-02-25T09:40:12;100318.44;;;2.89;100.00
70015;BME280;57358;51.094;6.760;2023-02-25T09:42:52;100395.59;;;3.45;100.00
70015;BME280;57358;51.094;6.760;2023-02-25T09:45:23;100479.78;;;4.27;100.00
70015;BME280;57358;51.094;6.760;2023-02-25T09:47:55;100481.25;;;4.64;100.00
70015;BME280;57358;51.094;6.760;2023-02-25T09:50:35;100462.97;;;4.67;100.00
70015;BME280;57358;51.094;6.760;2023-02-25T09:55:45;100495.38;;;4.84;100.00
70015;BME280;57358;51.094;6.760;2023-02-25T09:58:32;100495.38;;;4.84;100.00
70015;BME280;57358;51.094;6.760;2023-02-25T10:01:11;100507.13;;;4.95;100.00
70015;BME280;57358;51.094;6.760;2023-02-25T10:03:58;100505.19;;;5.02;100.00
70015;BME280;57358;51.094;6.760;2023-02-25T10:06:41;100506.88;;;5.03;100.00
70015;BME280;57358;51.094;6.760;2023-02-25T10:09:49;100494.19;;;4.94;100.00
70015;BME280;57358;51.094;6.760;2023-02-25T10:12:33;100481.38;;;4.88;100.00
70015;BME280;57358;51.094;6.760;2023-02-25T10:15:17;100489.56;;;5.02;100.00
70015;BME280;57358;51.094;6.760;2023-02-25T10:21:01;100497.31;;;6.06;100.00
70015;BME280;57358;51.094;6.760;2023-02-25T10:23:50;100499.75;;;6.34;100.00
70015;BME280;57358;51.094;6.760;2023-02-25T10:26:25;100454.38;;;6.16;100.00
70015;BME280;57358;51.094;6.760;2023-02-25T10:29:01;100448.06;;;5.74;100.00
70015;BME280;57358;51.094;6.760;2023-02-25T10:31:30;100435.75;;;5.54;100.00
70015;BME280;57358;51.094;6.760;2023-02-25T10:34:07;100418.09;;;5.14;100.00
70015;BME280;57358;51.094;6.760;2023-02-25T10:36:42;100432.66;;;4.39;100.00
70015;BME280;57358;51.094;6.760;2023-02-25T10:39:11;100402.72;;;3.37;100.00
70015;BME280;57358;51.094;6.760;2023-02-25T10:41:37;100396.56;;;2.74;100.00
70015;BME280;57358;51.094;6.760;2023-02-25T10:44:04;100365.69;;;1.91;100.00
70015;BME280;57358;51.094;6.760;2023-02-25T10:46:56;100499.84;;;2.52;100.00
70015;BME280;57358;51.094;6.760;2023-02-25T10:49:25;100394.59;;;1.26;100.00
70015;BME280;57358;51.094;6.760;2023-02-25T10:52:34;100504.41;;;1.53;100.00
70015;BME280;57358;51.094;6.760;2023-02-25T10:54:52;100352.22;;;-0.22;100.00
70015;BME280;57358;51.094;6.760;2023-02-25T10:57:31;100582.19;;;0.85;100.00
70015;BME280;57358;51.094;6.760;2023-02-25T11:02:51;100588.94;;;0.29;100.00
70015;BME280;57358;51.094;6.760;2023-02-25T11:05:36;100566.38;;;0.46;100.00
70015;BME280;57358;51.094;6.760;2023-02-25T11:08:04;100471.50;;;-0.05;100.00
70015;BME280;57358;51.094;6.760;2023-02-25T11:10:34;100545.78;;;0.40;100.00
70015;BME280;57358;51.094;6.760;2023-02-25T11:13:00;100531.72;;;0.63;100.00
70015;BME280;57358;51.094;6.760;2023-02-25T11:15:33;100584.44;;;1.08;100.00
70015;BME280;57358;51.094;6.760;2023-02-25T11:20:37;100250.59;;;-0.68;100.00
70015;BME280;57358;51.094;6.760;2023-02-25T11:23:04;100559.09;;;1.32;100.00
70015;BME280;57358;51.094;6.760;2023-02-25T11:25:37;100593.09;;;1.60;100.00
70015;BME280;57358;51.094;6.760;2023-02-25T11:28:07;100347.41;;;0.15;100.00
70015;BME280;57358;51.094;6.760;2023-02-25T11:30:41;100582.41;;;1.80;100.00
70015;BME280;57358;51.094;6.760;2023-02-25T11:33:25;100557.47;;;2.21;100.00
70015;BME280;57358;51.094;6.760;2023-02-25T11:35:57;100598.66;;;2.75;100.00
70015;BME280;57358;51.094;6.760;2023-02-25T11:38:35;100389.81;;;1.93;100.00
70015;BME280;57358;51.094;6.760;2023-02-25T11:41:03;100575.91;;;3.26;100.00
70015;BME280;57358;51.094;6.760;2023-02-25T11:43:40;100602.63;;;3.65;100.00
70015;BME280;57358;51.094;6.760;2023-02-25T11:46:11;100604.09;;;3.41;100.00
70015;BME280;57358;51.094;6.760;2023-02-25T11:48:57;100330.44;;;1.86;100.00
70015;BME280;57358;51.094;6.760;2023-02-25T11:51:27;100607.03;;;3.62;100.00
70015;BME280;57358;51.094;6.760;2023-02-25T11:57:03;100505.25;;;3.17;100.00
70015;BME280;57358;51.094;6.760;2023-02-25T11:59:38;100494.69;;;3.25;100.00
70015;BME280;57358;51.094;6.760;2023-02-25T12:02:25;100523.72;;;3.72;100.00
70015;BME280;57358;51.094;6.760;2023-02-25T12:08:07;100610.47;;;4.29;100.00
70015;BME280;57358;51.094;6.760;2023-02-25T12:16:32;100590.78;;;5.10;100.00
70015;BME280;57358;51.094;6.760;2023-02-25T12:24:20;100570.69;;;5.67;100.00
70015;BME280;57358;51.094;6.760;2023-02-25T12:32:56;100533.09;;;5.75;100.00
70015;BME280;57358;51.094;6.760;2023-02-25T12:38:46;100523.19;;;5.35;100.00
70015;BME280;57358;51.094;6.760;2023-02-25T12:41:31;100521.94;;;5.20;98.62
70015;BME280;57358;51.094;6.760;2023-02-25T12:47:04;100469.66;;;4.74;96.00
70015;BME280;57358;51.094;6.760;2023-02-25T12:49:42;100537.56;;;5.45;97.71
70015;BME280;57358;51.094;6.760;2023-02-25T13:00:49;100519.28;;;5.98;88.83
70015;BME280;57358;51.094;6.760;2023-02-25T13:09:14;100392.03;;;3.79;87.15
70015;BME280;57358;51.094;6.760;2023-02-25T13:23:21;100465.03;;;3.67;93.77
70015;BME280;57358;51.094;6.760;2023-02-25T13:28:43;100502.19;;;4.59;85.90
70015;BME280;57358;51.094;6.760;2023-02-25T13:34:12;100343.34;;;4.42;77.66
70015;BME280;57358;51.094;6.760;2023-02-25T13:45:25;100319.72;;;5.49;68.25
70015;BME280;57358;51.094;6.760;2023-02-25T13:51:06;100226.44;;;4.91;65.38
70015;BME280;57358;51.094;6.760;2023-02-25T13:53:58;100140.16;;;4.32;65.22
70015;BME280;57358;51.094;6.760;2023-02-25T14:05:12;100228.25;;;5.36;64.93
70015;BME280;57358;51.094;6.760;2023-02-25T14:10:28;100199.63;;;5.80;62.32
70015;BME280;57358;51.094;6.760;2023-02-25T14:21:50;100051.41;;;4.45;61.09
70015;BME280;57358;51.094;6.760;2023-02-25T14:30:48;99706.78;;;2.91;58.76
70015;BME280;57358;51.094;6.760;2023-02-25T14:33:30;99865.09;;;3.80;59.04
70015;BME280;57358;51.094;6.760;2023-02-25T14:39:19;99956.03;;;4.91;56.87
70015;BME280;57358;51.094;6.760;2023-02-25T14:42:03;99882.41;;;4.48;57.89
70015;BME280;57358;51.094;6.760;2023-02-25T14:47:13;99820.38;;;4.81;54.41
70015;BME280;57358;51.094;6.760;2023-02-25T15:00:45;99821.81;;;5.09;53.13
70015;BME280;57358;51.094;6.760;2023-02-25T15:03:29;99818.53;;;5.05;53.76
70015;BME280;57358;51.094;6.760;2023-02-25T15:06:11;99794.84;;;4.91;53.70
70015;BME280;57358;51.094;6.760;2023-02-25T15:14:26;99831.91;;;4.75;54.36
70015;BME280;57358;51.094;6.760;2023-02-25T15:22:31;99721.47;;;3.82;55.00
70015;BME280;57358;51.094;6.760;2023-02-25T15:27:52;99728.34;;;4.66;51.53
70015;BME280;57358;51.094;6.760;2023-02-25T15:30:24;99730.47;;;4.56;51.99
70015;BME280;57358;51.094;6.760;2023-02-25T15:33:20;99709.84;;;4.53;51.23
70015;BME280;57358;51.094;6.760;2023-02-25T15:38:18;99688.47;;;4.47;50.76
70015;BME280;57358;51.094;6.760;2023-02-25T15:40:49;99418.47;;;2.65;50.64
70015;BME280;57358;51.094;6.760;2023-02-25T15:45:50;99655.63;;;4.25;50.45
70015;BME280;57358;51.094;6.760;2023-02-25T15:55:53;99587.19;;;3.44;50.41
70015;BME280;57358;51.094;6.760;2023-02-25T15:58:45;99674.28;;;3.72;51.14
70015;BME280;57358;51.094;6.760;2023-02-25T16:01:27;99744.56;;;4.10;51.70